sensor_id;sensor_type;location;lat;lon;timestamp;pressure;altitude;pressure_sealevel;temperature;humidity
46682;BME280;34101;53.430;-2.224;2022-09-21T00:01:41;156537.72;;;16.33;82.68
46682;BME280;34101;53.430;-2.224;2022-09-21T00:04:08;156532.37;;;16.31;82.60
46682;BME280;34101;53.430;-2.224;2022-09-21T00:06:36;156519.79;;;16.26;82.71
46682;BME280;34101;53.430;-2.224;2022-09-21T00:09:05;156507.22;;;16.21;82.59
46682;BME280;34101;53.430;-2.224;2022-09-21T00:11:33;156499.84;;;16.18;82.69
46682;BME280;34101;53.430;-2.224;2022-09-21T00:14:04;156499.35;;;16.18;82.88
46682;BME280;34101;53.430;-2.224;2022-09-21T00:16:32;156503.57;;;16.19;83.68
46682;BME280;34101;53.430;-2.224;2022-09-21T00:19:00;156503.41;;;16.19;83.97
46682;BME280;34101;53.430;-2.224;2022-09-21T00:21:28;156498.22;;;16.17;84.08
46682;BME280;34101;53.430;-2.224;2022-09-21T00:23:55;156493.02;;;16.15;84.13
46682;BME280;34101;53.430;-2.224;2022-09-21T00:26:25;156486.78;;;16.13;84.38
46682;BME280;34101;53.430;-2.224;2022-09-21T00:28:55;156489.05;;;16.14;84.55
46682;BME280;34101;53.430;-2.224;2022-09-21T00:31:24;156493.92;;;16.16;85.28
46682;BME280;34101;53.430;-2.224;2022-09-21T00:33:53;156489.21;;;16.14;84.29
46682;BME280;34101;53.430;-2.224;2022-09-21T00:36:22;156479.64;;;16.10;84.23
46682;BME280;34101;53.430;-2.224;2022-09-21T00:38:53;156474.37;;;16.08;84.21
46682;BME280;34101;53.430;-2.224;2022-09-21T00:41:21;156468.53;;;16.05;84.59
46682;BME280;34101;53.430;-2.224;2022-09-21T00:44:09;156466.26;;;16.05;84.66
46682;BME280;34101;53.430;-2.224;2022-09-21T00:46:48;156455.63;;;16.00;85.30
46682;BME280;34101;53.430;-2.224;2022-09-21T00:49:17;156439.01;;;15.94;86.43
46682;BME280;34101;53.430;-2.224;2022-09-21T00:51:45;156433.74;;;15.91;86.06
46682;BME280;34101;53.430;-2.224;2022-09-21T00:54:16;156421.81;;;15.87;86.22
46682;BME280;34101;53.430;-2.224;2022-09-21T00:56:46;156405.76;;;15.80;86.62
46682;BME280;34101;53.430;-2.224;2022-09-21T00:59:14;156389.46;;;15.74;86.97
46682;BME280;34101;53.430;-2.224;2022-09-21T01:01:43;156374.70;;;15.68;87.41
46682;BME280;34101;53.430;-2.224;2022-09-21T01:04:10;156360.91;;;15.62;87.63
46682;BME280;34101;53.430;-2.224;2022-09-21T01:06:39;156345.42;;;15.56;88.81
46682;BME280;34101;53.430;-2.224;2022-09-21T01:09:07;156337.40;;;15.53;89.66
46682;BME280;34101;53.430;-2.224;2022-09-21T01:11:40;156334.64;;;15.52;89.37
46682;BME280;34101;53.430;-2.224;2022-09-21T01:14:20;156321.51;;;15.46;89.33
46682;BME280;34101;53.430;-2.224;2022-09-21T01:16:58;156307.64;;;15.41;89.57
46682;BME280;34101;53.430;-2.224;2022-09-21T01:19:51;156293.70;;;15.35;90.54
46682;BME280;34101;53.430;-2.224;2022-09-21T01:22:36;156274.72;;;15.28;91.33
46682;BME280;34101;53.430;-2.224;2022-09-21T01:25:18;156253.00;;;15.19;92.35
46682;BME280;34101;53.430;-2.224;2022-09-21T01:28:02;156223.00;;;15.07;93.01
46682;BME280;34101;53.430;-2.224;2022-09-21T01:30:33;156203.22;;;14.99;93.87
46682;BME280;34101;53.430;-2.224;2022-09-21T01:33:05;156181.42;;;14.90;95.06
46682;BME280;34101;53.430;-2.224;2022-09-21T01:35:39;156165.37;;;14.84;95.86
46682;BME280;34101;53.430;-2.224;2022-09-21T01:38:11;156156.94;;;14.80;96.50
46682;BME280;34101;53.430;-2.224;2022-09-21T01:40:44;156148.68;;;14.77;96.19
46682;BME280;34101;53.430;-2.224;2022-09-21T01:43:17;156137.25;;;14.72;97.23
46682;BME280;34101;53.430;-2.224;2022-09-21T01:45:50;156133.84;;;14.71;97.21
46682;BME280;34101;53.430;-2.224;2022-09-21T01:48:20;156131.90;;;14.70;98.05
46682;BME280;34101;53.430;-2.224;2022-09-21T01:50:52;156133.11;;;14.71;98.76
46682;BME280;34101;53.430;-2.224;2022-09-21T01:53:22;156138.30;;;14.73;99.00
46682;BME280;34101;53.430;-2.224;2022-09-21T01:55:55;156137.41;;;14.72;98.43
46682;BME280;34101;53.430;-2.224;2022-09-21T01:58:29;156134.98;;;14.71;99.10
46682;BME280;34101;53.430;-2.224;2022-09-21T02:00:59;156136.28;;;14.72;99.32
46682;BME280;34101;53.430;-2.224;2022-09-21T02:03:29;156120.88;;;14.66;99.19
46682;BME280;34101;53.430;-2.224;2022-09-21T02:05:58;156105.32;;;14.60;100.00
46682;BME280;34101;53.430;-2.224;2022-09-21T02:08:29;156087.00;;;14.52;100.00
46682;BME280;34101;53.430;-2.224;2022-09-21T02:11:00;156085.87;;;14.52;100.00
46682;BME280;34101;53.430;-2.224;2022-09-21T02:13:31;156095.75;;;14.56;100.00
46682;BME280;34101;53.430;-2.224;2022-09-21T02:16:11;156108.96;;;14.61;100.00
46682;BME280;34101;53.430;-2.224;2022-09-21T02:18:50;156126.63;;;14.68;100.00
46682;BME280;34101;53.430;-2.224;2022-09-21T02:21:24;156133.36;;;14.71;100.00
46682;BME280;34101;53.430;-2.224;2022-09-21T02:24:00;156130.20;;;14.70;100.00
46682;BME280;34101;53.430;-2.224;2022-09-21T02:26:36;156123.39;;;14.67;100.00
46682;BME280;34101;53.430;-2.224;2022-09-21T02:29:11;156129.22;;;14.69;100.00
46682;BME280;34101;53.430;-2.224;2022-09-21T02:31:46;156141.87;;;14.74;100.00
46682;BME280;34101;53.430;-2.224;2022-09-21T02:34:19;156142.52;;;14.74;100.00
46682;BME280;34101;53.430;-2.224;2022-09-21T02:36:50;156139.68;;;14.73;100.00
46682;BME280;34101;53.430;-2.224;2022-09-21T02:39:27;156146.97;;;14.76;100.00
46682;BME280;34101;53.430;-2.224;2022-09-21T02:42:03;156147.78;;;14.77;100.00
46682;BME280;34101;53.430;-2.224;2022-09-21T02:44:37;156147.78;;;14.77;100.00
46682;BME280;34101;53.430;-2.224;2022-09-21T02:47:09;156156.70;;;14.80;100.00
46682;BME280;34101;53.430;-2.224;2022-09-21T02:49:43;156157.02;;;14.80;100.00
46682;BME280;34101;53.430;-2.224;2022-09-21T02:52:14;156155.48;;;14.80;100.00
46682;BME280;34101;53.430;-2.224;2022-09-21T02:54:44;156157.59;;;14.81;100.00
46682;BME280;34101;53.430;-2.224;2022-09-21T02:57:14;156163.75;;;14.83;100.00
46682;BME280;34101;53.430;-2.224;2022-09-21T02:59:43;156172.10;;;14.86;100.00
46682;BME280;34101;53.430;-2.224;2022-09-21T03:02:11;156177.77;;;14.89;100.00
46682;BME280;34101;53.430;-2.224;2022-09-21T03:04:39;156172.34;;;14.86;100.00
46682;BME280;34101;53.430;-2.224;2022-09-21T03:07:07;156177.69;;;14.89;100.00
46682;BME280;34101;53.430;-2.224;2022-09-21T03:09:34;156176.23;;;14.88;100.00
46682;BME280;34101;53.430;-2.224;2022-09-21T03:12:03;156171.45;;;14.86;100.00
46682;BME280;34101;53.430;-2.224;2022-09-21T03:14:30;156181.02;;;14.90;100.00
46682;BME280;34101;53.430;-2.224;2022-09-21T03:16:57;156186.12;;;14.92;100.00
46682;BME280;34101;53.430;-2.224;2022-09-21T03:19:24;156187.82;;;14.93;100.00
46682;BME280;34101;53.430;-2.224;2022-09-21T03:21:52;156185.07;;;14.92;100.00
46682;BME280;34101;53.430;-2.224;2022-09-21T03:24:19;156182.64;;;14.91;100.00
46682;BME280;34101;53.430;-2.224;2022-09-21T03:26:47;156184.50;;;14.91;100.00
46682;BME280;34101;53.430;-2.224;2022-09-21T03:29:14;156185.64;;;14.92;100.00
46682;BME280;34101;53.430;-2.224;2022-09-21T03:31:42;156170.96;;;14.86;100.00
46682;BME280;34101;53.430;-2.224;2022-09-21T03:34:09;156156.38;;;14.80;100.00
46682;BME280;34101;53.430;-2.224;2022-09-21T03:36:36;156141.14;;;14.74;100.00
46682;BME280;34101;53.430;-2.224;2022-09-21T03:39:05;156128.82;;;14.69;100.00
46682;BME280;34101;53.430;-2.224;2022-09-21T03:41:32;156115.77;;;14.64;100.00
46682;BME280;34101;53.430;-2.224;2022-09-21T03:43:59;156102.80;;;14.59;100.00
46682;BME280;34101;53.430;-2.224;2022-09-21T03:46:26;156087.00;;;14.52;100.00
46682;BME280;34101;53.430;-2.224;2022-09-21T03:48:54;156095.59;;;14.56;100.00
46682;BME280;34101;53.430;-2.224;2022-09-21T03:51:21;156104.51;;;14.59;100.00
46682;BME280;34101;53.430;-2.224;2022-09-21T03:53:49;156114.88;;;14.63;100.00
46682;BME280;34101;53.430;-2.224;2022-09-21T03:56:16;156119.26;;;14.65;100.00
46682;BME280;34101;53.430;-2.224;2022-09-21T03:58:43;156110.75;;;14.62;100.00
46682;BME280;34101;53.430;-2.224;2022-09-21T04:01:11;156097.86;;;14.57;100.00
46682;BME280;34101;53.430;-2.224;2022-09-21T04:03:38;156086.11;;;14.52;100.00
46682;BME280;34101;53.430;-2.224;2022-09-21T04:06:08;156077.85;;;14.48;100.00
46682;BME280;34101;53.430;-2.224;2022-09-21T04:08:35;156070.55;;;14.46;100.00
46682;BME280;34101;53.430;-2.224;2022-09-21T04:11:09;156057.59;;;14.40;100.00
46682;BME280;34101;53.430;-2.224;2022-09-21T04:13:37;156057.67;;;14.40;100.00
46682;BME280;34101;53.430;-2.224;2022-09-21T04:16:05;156072.50;;;14.46;100.00
46682;BME280;34101;53.430;-2.224;2022-09-21T04:18:32;156080.60;;;14.50;100.00
46682;BME280;34101;53.430;-2.224;2022-09-21T04:20:59;156091.38;;;14.54;100.00
46682;BME280;34101;53.430;-2.224;2022-09-21T04:23:26;156104.26;;;14.59;100.00
46682;BME280;34101;53.430;-2.224;2022-09-21T04:25:53;156105.88;;;14.60;100.00
46682;BME280;34101;53.430;-2.224;2022-09-21T04:28:21;156107.42;;;14.60;100.00
46682;BME280;34101;53.430;-2.224;2022-09-21T04:30:51;156107.10;;;14.60;100.00
46682;BME280;34101;53.430;-2.224;2022-09-21T04:33:19;156102.80;;;14.59;100.00
46682;BME280;34101;53.430;-2.224;2022-09-21T04:35:46;156093.32;;;14.55;100.00
46682;BME280;34101;53.430;-2.224;2022-09-21T04:38:13;156094.05;;;14.55;100.00
46682;BME280;34101;53.430;-2.224;2022-09-21T04:40:40;156099.64;;;14.57;100.00
46682;BME280;34101;53.430;-2.224;2022-09-21T04:43:08;156098.67;;;14.57;100.00
46682;BME280;34101;53.430;-2.224;2022-09-21T04:45:35;156100.05;;;14.57;100.00
46682;BME280;34101;53.430;-2.224;2022-09-21T04:48:03;156097.62;;;14.56;100.00
46682;BME280;34101;53.430;-2.224;2022-09-21T04:50:30;156095.67;;;14.56;100.00
46682;BME280;34101;53.430;-2.224;2022-09-21T04:52:57;156073.96;;;14.47;100.00
46682;BME280;34101;53.430;-2.224;2022-09-21T04:55:24;156061.88;;;14.42;100.00
46682;BME280;34101;53.430;-2.224;2022-09-21T04:57:51;156046.49;;;14.36;100.00
46682;BME280;34101;53.430;-2.224;2022-09-21T05:00:23;156027.93;;;14.28;100.00
46682;BME280;34101;53.430;-2.224;2022-09-21T05:02:51;156017.07;;;14.24;100.00
46682;BME280;34101;53.430;-2.224;2022-09-21T05:05:18;156017.56;;;14.24;100.00
46682;BME280;34101;53.430;-2.224;2022-09-21T05:07:46;156021.85;;;14.26;100.00
46682;BME280;34101;53.430;-2.224;2022-09-21T05:10:13;156012.70;;;14.22;100.00
46682;BME280;34101;53.430;-2.224;2022-09-21T05:12:41;156005.57;;;14.19;100.00
46682;BME280;34101;53.430;-2.224;2022-09-21T05:15:09;155992.12;;;14.14;100.00
46682;BME280;34101;53.430;-2.224;2022-09-21T05:17:37;155981.91;;;14.10;100.00
46682;BME280;34101;53.430;-2.224;2022-09-21T05:20:04;155968.62;;;14.05;100.00
46682;BME280;34101;53.430;-2.224;2022-09-21T05:22:31;155964.98;;;14.03;100.00
46682;BME280;34101;53.430;-2.224;2022-09-21T05:24:58;155957.69;;;14.00;100.00
46682;BME280;34101;53.430;-2.224;2022-09-21T05:27:25;155954.77;;;13.99;100.00
46682;BME280;34101;53.430;-2.224;2022-09-21T05:29:53;155955.09;;;13.99;100.00
46682;BME280;34101;53.430;-2.224;2022-09-21T05:32:24;155945.86;;;13.95;100.00
46682;BME280;34101;53.430;-2.224;2022-09-21T05:35:03;155928.28;;;13.88;100.00
46682;BME280;34101;53.430;-2.224;2022-09-21T05:37:45;155911.27;;;13.82;100.00
46682;BME280;34101;53.430;-2.224;2022-09-21T05:40:16;155904.38;;;13.79;100.00
46682;BME280;34101;53.430;-2.224;2022-09-21T05:42:44;155897.09;;;13.76;100.00
46682;BME280;34101;53.430;-2.224;2022-09-21T05:45:14;155886.32;;;13.71;100.00
46682;BME280;34101;53.430;-2.224;2022-09-21T05:47:52;155886.16;;;13.71;100.00
46682;BME280;34101;53.430;-2.224;2022-09-21T05:50:33;155880.41;;;13.69;100.00
46682;BME280;34101;53.430;-2.224;2022-09-21T05:53:10;155870.20;;;13.65;100.00
46682;BME280;34101;53.430;-2.224;2022-09-21T05:55:50;155857.08;;;13.60;100.00
46682;BME280;34101;53.430;-2.224;2022-09-21T05:58:25;155847.85;;;13.56;100.00
46682;BME280;34101;53.430;-2.224;2022-09-21T06:01:10;155841.86;;;13.54;100.00
46682;BME280;34101;53.430;-2.224;2022-09-21T06:03:42;155831.65;;;13.50;100.00
46682;BME280;34101;53.430;-2.224;2022-09-21T06:06:09;155817.80;;;13.44;100.00
46682;BME280;34101;53.430;-2.224;2022-09-21T06:08:36;155805.17;;;13.39;100.00
46682;BME280;34101;53.430;-2.224;2022-09-21T06:11:03;155791.81;;;13.33;100.00
46682;BME280;34101;53.430;-2.224;2022-09-21T06:13:31;155782.41;;;13.30;100.00
46682;BME280;34101;53.430;-2.224;2022-09-21T06:16:01;155774.48;;;13.27;100.00
46682;BME280;34101;53.430;-2.224;2022-09-21T06:18:28;155775.77;;;13.27;100.00
46682;BME280;34101;53.430;-2.224;2022-09-21T06:20:56;155776.99;;;13.28;100.00
46682;BME280;34101;53.430;-2.224;2022-09-21T06:23:23;155776.58;;;13.27;100.00
46682;BME280;34101;53.430;-2.224;2022-09-21T06:25:51;155779.50;;;13.29;100.00
46682;BME280;34101;53.430;-2.224;2022-09-21T06:28:19;155781.12;;;13.29;100.00
46682;BME280;34101;53.430;-2.224;2022-09-21T06:30:55;155784.44;;;13.31;100.00
46682;BME280;34101;53.430;-2.224;2022-09-21T06:33:23;155791.89;;;13.34;100.00
46682;BME280;34101;53.430;-2.224;2022-09-21T06:35:52;155795.86;;;13.35;100.00
46682;BME280;34101;53.430;-2.224;2022-09-21T06:38:20;155801.12;;;13.37;100.00
46682;BME280;34101;53.430;-2.224;2022-09-21T06:40:47;155802.82;;;13.38;100.00
46682;BME280;34101;53.430;-2.224;2022-09-21T06:43:17;155808.73;;;13.40;100.00
46682;BME280;34101;53.430;-2.224;2022-09-21T06:45:52;155802.25;;;13.38;100.00
46682;BME280;34101;53.430;-2.224;2022-09-21T06:48:19;155806.38;;;13.39;100.00
46682;BME280;34101;53.430;-2.224;2022-09-21T06:50:47;155811.73;;;13.42;100.00
46682;BME280;34101;53.430;-2.224;2022-09-21T06:53:14;155821.04;;;13.45;100.00
46682;BME280;34101;53.430;-2.224;2022-09-21T06:55:42;155823.71;;;13.46;100.00
46682;BME280;34101;53.430;-2.224;2022-09-21T06:58:09;155816.43;;;13.43;100.00
46682;BME280;34101;53.430;-2.224;2022-09-21T07:00:45;155822.90;;;13.46;100.00
46682;BME280;34101;53.430;-2.224;2022-09-21T07:03:13;155835.94;;;13.51;100.00
46682;BME280;34101;53.430;-2.224;2022-09-21T07:05:44;155841.69;;;13.54;100.00
46682;BME280;34101;53.430;-2.224;2022-09-21T07:08:11;155844.04;;;13.54;100.00
46682;BME280;34101;53.430;-2.224;2022-09-21T07:10:38;155852.87;;;13.58;100.00
46682;BME280;34101;53.430;-2.224;2022-09-21T07:13:05;155867.37;;;13.64;100.00
46682;BME280;34101;53.430;-2.224;2022-09-21T07:15:33;155884.94;;;13.71;100.00
46682;BME280;34101;53.430;-2.224;2022-09-21T07:18:09;155897.26;;;13.76;100.00
46682;BME280;34101;53.430;-2.224;2022-09-21T07:20:37;155868.91;;;13.64;100.00
46682;BME280;34101;53.430;-2.224;2022-09-21T07:23:09;155885.75;;;13.71;100.00
46682;BME280;34101;53.430;-2.224;2022-09-21T07:25:36;155914.19;;;13.83;100.00
46682;BME280;34101;53.430;-2.224;2022-09-21T07:28:03;155939.70;;;13.93;100.00
46682;BME280;34101;53.430;-2.224;2022-09-21T07:30:31;155976.89;;;14.08;100.00
46682;BME280;34101;53.430;-2.224;2022-09-21T07:32:58;156005.16;;;14.19;100.00
46682;BME280;34101;53.430;-2.224;2022-09-21T07:35:25;156006.78;;;14.20;100.00
46682;BME280;34101;53.430;-2.224;2022-09-21T07:37:52;156037.49;;;14.32;100.00
46682;BME280;34101;53.430;-2.224;2022-09-21T07:40:19;156056.94;;;14.40;100.00
46682;BME280;34101;53.430;-2.224;2022-09-21T07:42:46;156079.63;;;14.49;100.00
46682;BME280;34101;53.430;-2.224;2022-09-21T07:45:14;156076.47;;;14.48;100.00
46682;BME280;34101;53.430;-2.224;2022-09-21T07:47:41;156125.50;;;14.68;100.00
46682;BME280;34101;53.430;-2.224;2022-09-21T07:50:09;156144.54;;;14.75;100.00
46682;BME280;34101;53.430;-2.224;2022-09-21T07:52:36;156172.42;;;14.86;100.00
46682;BME280;34101;53.430;-2.224;2022-09-21T07:55:04;156168.53;;;14.85;100.00
46682;BME280;34101;53.430;-2.224;2022-09-21T07:57:31;156163.10;;;14.83;100.00
46682;BME280;34101;53.430;-2.224;2022-09-21T07:59:59;156206.71;;;15.00;100.00
46682;BME280;34101;53.430;-2.224;2022-09-21T08:02:26;156173.32;;;14.87;100.00
46682;BME280;34101;53.430;-2.224;2022-09-21T08:04:54;156222.76;;;15.07;100.00
46682;BME280;34101;53.430;-2.224;2022-09-21T08:07:21;156290.13;;;15.34;100.00
46682;BME280;34101;53.430;-2.224;2022-09-21T08:09:48;156389.38;;;15.74;99.71
46682;BME280;34101;53.430;-2.224;2022-09-21T08:12:16;156555.16;;;16.40;94.03
46682;BME280;34101;53.430;-2.224;2022-09-21T08:14:43;156675.08;;;16.88;91.05
46682;BME280;34101;53.430;-2.224;2022-09-21T08:17:10;156660.23;;;16.82;86.42
46682;BME280;34101;53.430;-2.224;2022-09-21T08:19:38;156734.08;;;17.12;85.00
46682;BME280;34101;53.430;-2.224;2022-09-21T08:22:05;156622.26;;;16.67;84.62
46682;BME280;34101;53.430;-2.224;2022-09-21T08:24:32;156678.57;;;16.90;84.08
46682;BME280;34101;53.430;-2.224;2022-09-21T08:27:00;156835.53;;;17.53;79.48
46682;BME280;34101;53.430;-2.224;2022-09-21T08:29:27;156986.71;;;18.13;75.39
46682;BME280;34101;53.430;-2.224;2022-09-21T08:31:54;157002.95;;;18.20;74.51
46682;BME280;34101;53.430;-2.224;2022-09-21T08:34:22;156858.34;;;17.62;77.06
46682;BME280;34101;53.430;-2.224;2022-09-21T08:36:49;156714.76;;;17.04;79.73
46682;BME280;34101;53.430;-2.224;2022-09-21T08:39:16;156696.99;;;16.97;80.35
46682;BME280;34101;53.430;-2.224;2022-09-21T08:41:53;156826.44;;;17.49;78.06
46682;BME280;34101;53.430;-2.224;2022-09-21T08:44:32;156934.41;;;17.92;75.42
46682;BME280;34101;53.430;-2.224;2022-09-21T08:47:08;157096.83;;;18.58;73.10
46682;BME280;34101;53.430;-2.224;2022-09-21T08:49:39;157098.86;;;18.58;72.50
46682;BME280;34101;53.430;-2.224;2022-09-21T08:52:11;157180.90;;;18.91;69.98
46682;BME280;34101;53.430;-2.224;2022-09-21T08:54:45;157151.74;;;18.80;70.01
46682;BME280;34101;53.430;-2.224;2022-09-21T08:57:16;157086.84;;;18.54;71.66
46682;BME280;34101;53.430;-2.224;2022-09-21T08:59:49;157151.49;;;18.79;70.03
46682;BME280;34101;53.430;-2.224;2022-09-21T09:02:30;157330.64;;;19.51;67.34
46682;BME280;34101;53.430;-2.224;2022-09-21T09:05:03;157595.63;;;20.57;62.75
46682;BME280;34101;53.430;-2.224;2022-09-21T09:07:49;157717.52;;;21.06;62.02
46682;BME280;34101;53.430;-2.224;2022-09-21T09:10:34;157918.11;;;21.87;58.18
46682;BME280;34101;53.430;-2.224;2022-09-21T09:13:14;157884.11;;;21.73;57.75
46682;BME280;34101;53.430;-2.224;2022-09-21T09:15:55;157751.43;;;21.20;59.14
46682;BME280;34101;53.430;-2.224;2022-09-21T09:18:31;157628.72;;;20.71;60.75
46682;BME280;34101;53.430;-2.224;2022-09-21T09:21:04;157532.46;;;20.32;61.36
46682;BME280;34101;53.430;-2.224;2022-09-21T09:23:38;157590.99;;;20.56;61.37
46682;BME280;34101;53.430;-2.224;2022-09-21T09:26:11;157443.93;;;19.97;63.22
46682;BME280;34101;53.430;-2.224;2022-09-21T09:28:44;157467.67;;;20.06;61.60
46682;BME280;34101;53.430;-2.224;2022-09-21T09:31:17;157462.14;;;20.04;61.96
46682;BME280;34101;53.430;-2.224;2022-09-21T09:33:52;157426.21;;;19.90;62.49
46682;BME280;34101;53.430;-2.224;2022-09-21T09:36:26;157338.36;;;19.54;62.78
46682;BME280;34101;53.430;-2.224;2022-09-21T09:39:03;157319.75;;;19.47;63.64
46682;BME280;34101;53.430;-2.224;2022-09-21T09:41:46;157215.34;;;19.05;66.52
46682;BME280;34101;53.430;-2.224;2022-09-21T09:44:30;157258.00;;;19.22;65.16
46682;BME280;34101;53.430;-2.224;2022-09-21T09:47:07;157216.08;;;19.05;65.95
46682;BME280;34101;53.430;-2.224;2022-09-21T09:49:46;157306.42;;;19.42;64.83
46682;BME280;34101;53.430;-2.224;2022-09-21T09:52:19;157318.78;;;19.46;63.99
46682;BME280;34101;53.430;-2.224;2022-09-21T09:54:47;157257.92;;;19.22;64.92
46682;BME280;34101;53.430;-2.224;2022-09-21T09:57:19;157262.06;;;19.24;65.14
46682;BME280;34101;53.430;-2.224;2022-09-21T09:59:53;157257.59;;;19.22;66.94
46682;BME280;34101;53.430;-2.224;2022-09-21T10:02:23;157200.88;;;18.99;66.47
46682;BME280;34101;53.430;-2.224;2022-09-21T10:04:57;157217.70;;;19.06;67.34
46682;BME280;34101;53.430;-2.224;2022-09-21T10:07:33;157075.87;;;18.49;68.20
46682;BME280;34101;53.430;-2.224;2022-09-21T10:10:40;157214.37;;;19.05;67.10
46682;BME280;34101;53.430;-2.224;2022-09-21T10:13:14;157227.94;;;19.10;66.19
46682;BME280;34101;53.430;-2.224;2022-09-21T10:15:47;157288.95;;;19.35;65.34
46682;BME280;34101;53.430;-2.224;2022-09-21T10:18:19;157172.78;;;18.88;65.98
46682;BME280;34101;53.430;-2.224;2022-09-21T10:20:58;157200.07;;;18.99;66.32
46682;BME280;34101;53.430;-2.224;2022-09-21T10:23:27;157200.72;;;18.99;66.67
46682;BME280;34101;53.430;-2.224;2022-09-21T10:25:59;157219.32;;;19.07;66.31
46682;BME280;34101;53.430;-2.224;2022-09-21T10:28:28;157232.41;;;19.12;66.41
46682;BME280;34101;53.430;-2.224;2022-09-21T10:31:18;157307.89;;;19.42;65.64
46682;BME280;34101;53.430;-2.224;2022-09-21T10:33:52;157401.51;;;19.80;63.50
46682;BME280;34101;53.430;-2.224;2022-09-21T10:36:28;157413.86;;;19.85;63.24
46682;BME280;34101;53.430;-2.224;2022-09-21T10:39:11;157409.96;;;19.83;64.39
46682;BME280;34101;53.430;-2.224;2022-09-21T10:41:40;157504.00;;;20.21;64.80
46682;BME280;34101;53.430;-2.224;2022-09-21T10:44:14;157511.32;;;20.24;62.35
46682;BME280;34101;53.430;-2.224;2022-09-21T10:46:41;157518.15;;;20.26;61.73
46682;BME280;34101;53.430;-2.224;2022-09-21T10:49:16;157558.80;;;20.43;62.06
46682;BME280;34101;53.430;-2.224;2022-09-21T10:51:47;157573.51;;;20.49;59.51
46682;BME280;34101;53.430;-2.224;2022-09-21T10:54:21;157560.67;;;20.43;59.75
46682;BME280;34101;53.430;-2.224;2022-09-21T10:56:53;157516.12;;;20.26;60.17
46682;BME280;34101;53.430;-2.224;2022-09-21T10:59:25;157495.39;;;20.17;60.92
46682;BME280;34101;53.430;-2.224;2022-09-21T11:01:54;157568.96;;;20.47;59.25
46682;BME280;34101;53.430;-2.224;2022-09-21T11:04:29;157681.90;;;20.92;57.93
46682;BME280;34101;53.430;-2.224;2022-09-21T11:07:06;157716.87;;;21.06;57.66
46682;BME280;34101;53.430;-2.224;2022-09-21T11:09:40;157557.01;;;20.42;58.40
46682;BME280;34101;53.430;-2.224;2022-09-21T11:12:34;157460.03;;;20.03;59.94
46682;BME280;34101;53.430;-2.224;2022-09-21T11:15:16;157495.79;;;20.17;58.98
46682;BME280;34101;53.430;-2.224;2022-09-21T11:17:50;157539.53;;;20.35;58.04
46682;BME280;34101;53.430;-2.224;2022-09-21T11:20:27;157540.99;;;20.36;59.16
46682;BME280;34101;53.430;-2.224;2022-09-21T11:23:02;157525.87;;;20.29;57.83
46682;BME280;34101;53.430;-2.224;2022-09-21T11:25:37;157613.68;;;20.65;58.09
46682;BME280;34101;53.430;-2.224;2022-09-21T11:28:12;157587.82;;;20.54;57.68
46682;BME280;34101;53.430;-2.224;2022-09-21T11:30:58;157612.21;;;20.64;56.66
46682;BME280;34101;53.430;-2.224;2022-09-21T11:33:37;157647.99;;;20.78;56.85
46682;BME280;34101;53.430;-2.224;2022-09-21T11:36:12;157599.69;;;20.59;56.27
46682;BME280;34101;53.430;-2.224;2022-09-21T11:38:54;157628.96;;;20.71;56.52
46682;BME280;34101;53.430;-2.224;2022-09-21T11:41:40;157684.18;;;20.93;55.98
46682;BME280;34101;53.430;-2.224;2022-09-21T11:44:21;157705.65;;;21.01;53.45
46682;BME280;34101;53.430;-2.224;2022-09-21T11:47:02;157711.34;;;21.04;52.16
46682;BME280;34101;53.430;-2.224;2022-09-21T11:49:47;157666.53;;;20.86;53.67
46682;BME280;34101;53.430;-2.224;2022-09-21T11:52:32;157791.45;;;21.36;51.84
46682;BME280;34101;53.430;-2.224;2022-09-21T11:55:15;157868.73;;;21.67;50.85
46682;BME280;34101;53.430;-2.224;2022-09-21T11:57:52;158021.29;;;22.28;48.47
46682;BME280;34101;53.430;-2.224;2022-09-21T12:00:23;157983.04;;;22.13;47.85
46682;BME280;34101;53.430;-2.224;2022-09-21T12:04:16;157957.17;;;22.02;48.72
46682;BME280;34101;53.430;-2.224;2022-09-21T12:06:54;157785.68;;;21.34;49.63
46682;BME280;34101;53.430;-2.224;2022-09-21T12:09:47;157673.52;;;20.89;51.19
46682;BME280;34101;53.430;-2.224;2022-09-21T12:12:22;157664.99;;;20.85;51.98
46682;BME280;34101;53.430;-2.224;2022-09-21T12:14:56;157617.01;;;20.66;51.23
46682;BME280;34101;53.430;-2.224;2022-09-21T12:17:35;157511.07;;;20.24;53.37
46682;BME280;34101;53.430;-2.224;2022-09-21T12:20:13;157509.77;;;20.23;54.09
46682;BME280;34101;53.430;-2.224;2022-09-21T12:22:46;157427.35;;;19.90;54.65
46682;BME280;34101;53.430;-2.224;2022-09-21T12:25:17;157478.88;;;20.11;54.18
46682;BME280;34101;53.430;-2.224;2022-09-21T12:27:49;157507.99;;;20.22;53.38
46682;BME280;34101;53.430;-2.224;2022-09-21T12:30:19;157511.48;;;20.24;54.14
46682;BME280;34101;53.430;-2.224;2022-09-21T12:32:54;157495.55;;;20.17;54.79
46682;BME280;34101;53.430;-2.224;2022-09-21T12:35:27;157413.94;;;19.85;55.54
46682;BME280;34101;53.430;-2.224;2022-09-21T12:38:00;157418.00;;;19.86;54.93
46682;BME280;34101;53.430;-2.224;2022-09-21T12:40:35;157372.09;;;19.68;55.79
46682;BME280;34101;53.430;-2.224;2022-09-21T12:43:09;157357.29;;;19.62;56.29
46682;BME280;34101;53.430;-2.224;2022-09-21T12:45:42;157264.99;;;19.25;56.49
46682;BME280;34101;53.430;-2.224;2022-09-21T12:48:19;157251.17;;;19.19;57.01
46682;BME280;34101;53.430;-2.224;2022-09-21T12:50:54;157271.89;;;19.28;56.98
46682;BME280;34101;53.430;-2.224;2022-09-21T12:53:25;157313.49;;;19.44;56.99
46682;BME280;34101;53.430;-2.224;2022-09-21T12:55:59;157313.82;;;19.45;56.35
46682;BME280;34101;53.430;-2.224;2022-09-21T12:58:42;157291.47;;;19.36;56.79
46682;BME280;34101;53.430;-2.224;2022-09-21T13:01:20;157246.46;;;19.18;56.91